createdAt,value
2022-08-14T03:02:56.206Z,73.50
2022-08-14T03:05:23.603Z,74.00
2022-08-14T03:07:53.043Z,74.40
2022-08-14T03:10:25.956Z,74.70
2022-08-14T03:12:57.226Z,75.00
2022-08-14T03:15:25.363Z,75.30
2022-08-14T03:17:57.232Z,76.40
2022-08-14T03:20:28.602Z,78.60
2022-08-14T03:22:57.098Z,79.80
2022-08-14T03:25:25.070Z,79.60
2022-08-14T03:27:58.908Z,79.10
2022-08-14T03:30:39.580Z,78.20
2022-08-14T03:33:12.678Z,78.20
2022-08-14T03:36:05.177Z,77.90
2022-08-14T03:39:15.295Z,77.70
2022-08-14T03:41:20.335Z,78.00
2022-08-14T03:43:57.015Z,78.30
2022-08-14T03:46:39.144Z,79.00
2022-08-14T03:49:24.349Z,79.50
2022-08-14T03:51:57.722Z,79.60
2022-08-14T03:54:26.518Z,80.00
2022-08-14T03:56:54.874Z,80.00
2022-08-14T03:59:23.260Z,80.60
2022-08-14T04:01:58.107Z,81.10
2022-08-14T04:04:30.882Z,81.40
2022-08-14T04:07:00.745Z,81.20
2022-08-14T04:09:29.255Z,81.40
2022-08-14T04:11:58.132Z,81.00
2022-08-14T04:14:28.954Z,81.20
2022-08-14T04:16:57.261Z,81.20
2022-08-14T04:19:32.752Z,81.90
2022-08-14T04:22:04.137Z,83.70
2022-08-14T04:24:38.502Z,85.60
2022-08-14T04:27:09.546Z,86.80
2022-08-14T04:29:39.154Z,88.00
2022-08-14T04:33:02.521Z,88.20
2022-08-14T04:34:57.065Z,88.30
2022-08-14T04:37:45.280Z,88.20
2022-08-14T04:40:31.783Z,88.10
2022-08-14T04:43:18.166Z,88.10
2022-08-14T04:45:51.453Z,88.00
2022-08-14T04:48:43.129Z,88.10
2022-08-14T04:51:10.573Z,88.50
2022-08-14T04:53:43.166Z,89.20
2022-08-14T04:56:33.848Z,90.00
2022-08-14T04:59:09.905Z,90.30
2022-08-14T05:01:44.753Z,91.20
2022-08-14T05:04:14.658Z,89.60
2022-08-14T05:06:44.663Z,90.30
2022-08-14T05:09:14.268Z,91.00
2022-08-14T05:11:44.251Z,92.00
2022-08-14T05:14:34.455Z,92.60
2022-08-14T05:17:01.533Z,93.00
2022-08-14T05:19:32.555Z,93.00
2022-08-14T05:22:17.822Z,92.80
2022-08-14T05:24:51.432Z,92.60
2022-08-14T05:27:23.121Z,92.10
2022-08-14T05:29:53.632Z,92.00
2022-08-14T05:32:23.270Z,91.70
2022-08-14T05:34:57.394Z,91.70
2022-08-14T05:37:26.717Z,92.00
2022-08-14T05:39:56.021Z,92.30
2022-08-14T05:42:29.357Z,93.50
2022-08-14T05:45:04.144Z,95.00
2022-08-14T05:47:39.317Z,95.10
2022-08-14T05:50:18.411Z,94.60
2022-08-14T05:52:49.130Z,94.50
2022-08-14T05:55:22.041Z,94.30
2022-08-14T05:57:53.077Z,93.80
2022-08-14T06:00:28.972Z,93.10
2022-08-14T06:03:07.234Z,92.60
2022-08-14T06:05:38.443Z,92.10
2022-08-14T06:08:08.579Z,91.80
2022-08-14T06:10:51.804Z,91.50
2022-08-14T06:13:19.962Z,91.40
2022-08-14T06:15:49.238Z,91.30
2022-08-14T06:18:18.138Z,91.10
2022-08-14T06:20:46.719Z,91.10
2022-08-14T06:23:14.894Z,90.90
2022-08-14T06:25:44.647Z,90.70
2022-08-14T06:28:27.996Z,90.60
2022-08-14T06:30:56.790Z,90.50
2022-08-14T06:35:01.464Z,90.40
2022-08-14T06:36:13.486Z,90.50
2022-08-14T06:38:46.525Z,90.30
2022-08-14T06:41:20.717Z,90.10
2022-08-14T06:44:09.668Z,90.10
2022-08-14T06:46:38.053Z,89.60
2022-08-14T06:49:06.767Z,89.60
2022-08-14T06:51:38.972Z,89.40
2022-08-14T06:54:13.210Z,89.10
2022-08-14T06:56:44.305Z,88.60
2022-08-14T06:59:23.489Z,88.50
2022-08-14T07:02:13.235Z,88.20
2022-08-14T07:04:59.026Z,87.90
2022-08-14T07:07:28.657Z,87.30
2022-08-14T07:09:56.871Z,87.50
2022-08-14T07:12:52.199Z,87.20
2022-08-14T07:15:14.529Z,87.00
2022-08-14T07:17:46.909Z,86.80
2022-08-14T07:20:20.499Z,86.50
2022-08-14T07:23:05.148Z,86.10
2022-08-14T07:25:37.486Z,85.70
2022-08-14T07:28:12.875Z,85.80
2022-08-14T07:30:51.098Z,85.40
2022-08-14T07:33:24.889Z,85.30
2022-08-14T07:35:59.605Z,85.30
2022-08-14T07:38:33.570Z,84.90
2022-08-14T07:41:06.852Z,84.80
2022-08-14T07:43:44.127Z,84.90
2022-08-14T07:46:21.332Z,84.50
2022-08-14T07:48:57.862Z,84.30
2022-08-14T07:51:26.056Z,84.20
2022-08-14T07:53:57.061Z,84.30
2022-08-14T07:56:47.808Z,83.80
2022-08-14T07:59:16.793Z,83.60
2022-08-14T08:01:48.200Z,84.20
2022-08-14T08:04:24.469Z,83.60
2022-08-14T08:06:54.767Z,82.70
2022-08-14T08:09:32.018Z,82.30
2022-08-14T08:12:05.125Z,82.10
2022-08-14T08:14:56.765Z,82.00
2022-08-14T08:17:34.656Z,81.20
2022-08-14T08:20:09.241Z,81.30
2022-08-14T08:22:40.775Z,80.30
2022-08-14T08:25:13.895Z,80.30
2022-08-14T08:27:56.364Z,79.70
2022-08-14T08:30:25.033Z,79.40
2022-08-14T08:32:55.550Z,79.40
2022-08-14T08:35:25.679Z,78.90
2022-08-14T08:39:18.838Z,79.00
2022-08-14T08:41:05.431Z,79.00
2022-08-14T08:43:38.991Z,78.60
2022-08-14T08:46:21.285Z,78.20
2022-08-14T08:48:54.080Z,77.40
2022-08-14T08:51:25.134Z,77.10
2022-08-14T08:54:00.405Z,76.70
2022-08-14T08:56:39.838Z,75.90
2022-08-14T08:59:22.194Z,75.70
2022-08-14T09:01:58.089Z,75.50
2022-08-14T09:04:28.131Z,75.90
2022-08-14T09:07:10.406Z,75.50
2022-08-14T09:09:54.139Z,75.30
2022-08-14T09:12:32.172Z,75.80
2022-08-14T09:15:02.316Z,75.70
2022-08-14T09:17:30.793Z,75.30
2022-08-14T09:20:02.003Z,73.90
2022-08-14T09:22:35.995Z,73.90
2022-08-14T09:25:07.014Z,73.90
2022-08-14T09:27:35.812Z,73.80
2022-08-14T09:30:30.973Z,73.20
2022-08-14T09:33:16.158Z,73.50
2022-08-14T09:36:03.953Z,73.10
2022-08-14T09:38:40.527Z,73.00
2022-08-14T09:41:19.403Z,72.80
2022-08-14T09:43:58.203Z,72.30
2022-08-14T09:46:27.738Z,70.70
2022-08-14T09:49:00.445Z,71.40
2022-08-14T09:51:41.358Z,71.40
2022-08-14T09:54:23.068Z,71.30
2022-08-14T09:56:57.168Z,71.10
2022-08-14T09:59:27.907Z,70.10
2022-08-14T10:01:57.362Z,69.60
2022-08-14T10:04:34.515Z,68.50
2022-08-14T10:07:08.488Z,67.90
2022-08-14T10:10:00.358Z,67.40
2022-08-14T10:12:50.113Z,67.00
2022-08-14T10:15:23.841Z,66.30
2022-08-14T10:18:03.629Z,66.10
2022-08-14T10:20:40.808Z,64.00
2022-08-14T10:23:16.200Z,62.90
2022-08-14T10:25:50.489Z,62.30
2022-08-14T10:28:39.278Z,62.70
2022-08-14T10:31:25.453Z,62.50
2022-08-14T10:34:03.569Z,61.50
2022-08-14T10:36:47.552Z,61.80
2022-08-14T10:39:20.455Z,61.20
2022-08-14T10:41:54.142Z,60.40
2022-08-14T10:44:24.934Z,59.90
2022-08-14T10:47:40.288Z,59.30
2022-08-14T10:50:01.047Z,60.40
2022-08-14T10:52:34.535Z,59.00
2022-08-14T10:55:13.933Z,58.20
2022-08-14T10:57:52.524Z,58.10
2022-08-14T11:00:30.383Z,57.40
2022-08-14T11:03:09.285Z,56.40
2022-08-14T11:05:42.748Z,56.40
2022-08-14T11:08:12.674Z,55.70
2022-08-14T11:10:46.128Z,55.00
2022-08-14T11:13:19.644Z,54.60
2022-08-14T11:15:48.846Z,54.40
2022-08-14T11:18:20.312Z,54.40
2022-08-14T11:21:00.268Z,54.30
2022-08-14T11:23:38.691Z,53.30
2022-08-14T11:26:10.693Z,53.90
2022-08-14T11:28:47.210Z,53.50
2022-08-14T11:31:19.437Z,52.60
2022-08-14T11:33:51.157Z,52.40
2022-08-14T11:36:23.453Z,52.10
2022-08-14T11:38:53.805Z,51.70
2022-08-14T11:41:23.179Z,51.40
2022-08-14T11:43:57.793Z,50.90
2022-08-14T11:46:30.273Z,50.50
2022-08-14T11:49:06.517Z,49.60
2022-08-14T11:51:53.820Z,49.90
2022-08-14T11:54:34.711Z,50.10
2022-08-14T11:57:05.769Z,49.50
2022-08-14T11:59:34.332Z,50.00
2022-08-14T12:03:01.600Z,49.90
2022-08-14T12:04:58.767Z,49.00
2022-08-14T12:07:27.054Z,48.90
2022-08-14T12:09:59.234Z,48.40
2022-08-14T12:12:35.582Z,48.20
2022-08-14T12:15:06.868Z,47.30
2022-08-14T12:17:47.709Z,47.20
2022-08-14T12:20:30.126Z,46.40
2022-08-14T12:23:01.499Z,46.40
2022-08-14T12:25:30.163Z,45.70
2022-08-14T12:28:27.114Z,45.90
2022-08-14T12:30:59.870Z,45.40
2022-08-14T12:33:33.766Z,43.20
2022-08-14T12:36:05.793Z,43.80
2022-08-14T12:38:36.409Z,44.30
2022-08-14T12:41:10.155Z,44.80
2022-08-14T12:43:48.022Z,44.80
2022-08-14T12:46:27.362Z,44.20
2022-08-14T12:48:57.587Z,44.10
2022-08-14T12:51:27.991Z,43.70
2022-08-14T12:53:59.509Z,42.70
2022-08-14T12:56:33.905Z,42.70
2022-08-14T12:59:04.593Z,42.50
2022-08-14T13:02:00.467Z,42.30
2022-08-14T13:04:23.191Z,42.20
2022-08-14T13:06:52.751Z,42.70
2022-08-14T13:09:23.282Z,43.40
2022-08-14T13:11:58.541Z,43.90
2022-08-14T13:14:47.827Z,44.30
2022-08-14T13:17:17.151Z,45.00
2022-08-14T13:19:46.050Z,45.40
2022-08-14T13:22:32.018Z,45.40
2022-08-14T13:25:01.058Z,45.50
2022-08-14T13:27:33.992Z,45.20
2022-08-14T13:30:21.410Z,44.40
2022-08-14T13:32:53.112Z,43.30
2022-08-14T13:35:22.892Z,43.10
2022-08-14T13:37:53.584Z,42.50
2022-08-14T13:40:26.379Z,42.20
2022-08-14T13:42:57.115Z,41.00
2022-08-14T13:45:33.603Z,41.50
2022-08-14T13:48:27.439Z,41.40
2022-08-14T13:51:02.042Z,41.50
2022-08-14T13:53:38.255Z,40.40
2022-08-14T13:56:14.457Z,40.30
2022-08-14T13:58:47.028Z,40.20
2022-08-14T14:01:18.990Z,40.60
2022-08-14T14:03:53.425Z,40.70
2022-08-14T14:06:25.560Z,39.70
2022-08-14T14:08:58.969Z,40.80
2022-08-14T14:11:30.103Z,40.90
2022-08-14T14:14:00.395Z,41.30
2022-08-14T14:16:30.848Z,40.40
2022-08-14T14:19:09.173Z,40.20
2022-08-14T14:21:40.719Z,40.50
2022-08-14T14:24:15.042Z,39.90
2022-08-14T14:26:46.856Z,39.90
2022-08-14T14:29:15.222Z,39.00
2022-08-14T14:31:49.415Z,39.30
2022-08-14T14:34:29.553Z,40.50
2022-08-14T14:37:02.436Z,40.60
2022-08-14T14:39:31.375Z,40.50
2022-08-14T14:42:08.195Z,41.00
2022-08-14T14:44:40.598Z,42.20
2022-08-14T14:47:15.466Z,41.30
2022-08-14T14:49:54.602Z,41.60
2022-08-14T14:52:27.846Z,42.00
2022-08-14T14:54:58.785Z,41.00
2022-08-14T14:57:35.659Z,40.60
2022-08-14T15:00:08.797Z,40.20
2022-08-14T15:02:46.080Z,39.70
2022-08-14T15:05:17.211Z,39.40
2022-08-14T15:07:49.259Z,39.90
2022-08-14T15:10:27.055Z,40.50
2022-08-14T15:13:03.427Z,42.30
2022-08-14T15:15:32.540Z,42.40
2022-08-14T15:18:02.077Z,41.80
2022-08-14T15:20:34.422Z,41.80
2022-08-14T15:23:08.219Z,41.10
2022-08-14T15:25:40.512Z,40.90
2022-08-14T15:28:13.084Z,40.40
2022-08-14T15:30:51.144Z,39.80
2022-08-14T15:34:33.540Z,40.10
2022-08-14T15:36:35.168Z,40.20
2022-08-14T15:39:03.274Z,40.90
2022-08-14T15:41:41.306Z,40.80
2022-08-14T15:44:24.579Z,41.10
2022-08-14T15:46:53.735Z,41.70
2022-08-14T15:49:24.183Z,42.30
2022-08-14T15:51:52.618Z,42.90
2022-08-14T15:54:21.967Z,42.90
2022-08-14T15:56:58.378Z,43.40
2022-08-14T15:59:27.203Z,43.70
2022-08-14T16:01:55.341Z,44.10
2022-08-14T16:04:24.923Z,44.20
2022-08-14T16:06:55.448Z,44.20
2022-08-14T16:09:23.887Z,44.50
2022-08-14T16:11:54.012Z,45.20
2022-08-14T16:14:24.227Z,45.30
2022-08-14T16:17:00.519Z,45.40
2022-08-14T16:19:32.331Z,45.60
2022-08-14T16:23:00.200Z,45.70
2022-08-14T16:25:03.005Z,46.10
2022-08-14T16:27:37.242Z,45.40
2022-08-14T16:30:20.377Z,45.80
2022-08-14T16:32:55.565Z,46.10
2022-08-14T16:35:26.591Z,46.20
2022-08-14T16:38:35.714Z,45.70
2022-08-14T16:41:18.182Z,45.80
2022-08-14T16:43:53.185Z,46.10
2022-08-14T16:46:22.361Z,46.20
2022-08-14T16:48:57.432Z,45.90
2022-08-14T16:51:28.298Z,46.10
2022-08-14T16:53:58.739Z,45.90
2022-08-14T16:56:30.946Z,45.80
2022-08-14T16:59:07.266Z,46.30
2022-08-14T17:01:37.448Z,46.50
2022-08-14T17:04:14.656Z,46.70
2022-08-14T17:06:54.875Z,47.20
2022-08-14T17:09:33.045Z,47.10
2022-08-14T17:12:07.442Z,46.90
2022-08-14T17:15:10.499Z,47.00
2022-08-14T17:17:58.238Z,47.20
2022-08-14T17:20:54.076Z,47.20
2022-08-14T17:23:17.438Z,47.30
2022-08-14T17:25:50.769Z,47.10
2022-08-14T17:28:50.302Z,47.30
2022-08-14T17:31:09.240Z,47.60
2022-08-14T17:33:40.951Z,47.70
2022-08-14T17:36:21.595Z,48.00
2022-08-14T17:39:06.682Z,48.20
2022-08-14T17:41:38.617Z,48.00
2022-08-14T17:44:20.153Z,48.10
2022-08-14T17:46:57.035Z,48.20
2022-08-14T17:49:27.063Z,48.60
2022-08-14T17:52:07.635Z,48.50
2022-08-14T17:54:44.375Z,48.70
2022-08-14T17:57:17.542Z,49.10
2022-08-14T17:59:48.099Z,49.00
2022-08-14T18:02:19.261Z,49.20
2022-08-14T18:04:48.244Z,50.80
2022-08-14T18:08:00.167Z,50.10
2022-08-14T18:10:51.967Z,50.40
2022-08-14T18:13:01.647Z,50.10
2022-08-14T18:15:37.274Z,50.20
2022-08-14T18:18:08.788Z,51.70
2022-08-14T18:21:43.106Z,52.70
2022-08-14T18:23:25.712Z,51.30
2022-08-14T18:25:59.261Z,51.10
2022-08-14T18:28:48.476Z,51.30
2022-08-14T18:31:43.588Z,51.30
2022-08-14T18:34:31.808Z,52.60
2022-08-14T18:37:14.404Z,51.20
2022-08-14T18:40:02.018Z,51.30
2022-08-14T18:42:45.461Z,52.30
2022-08-14T18:45:26.340Z,53.30
2022-08-14T18:48:28.726Z,51.80
2022-08-14T18:51:06.134Z,52.10
2022-08-14T18:53:53.191Z,53.10
2022-08-14T18:56:59.038Z,53.20
2022-08-14T18:59:39.286Z,54.10
2022-08-14T19:02:44.355Z,52.70
2022-08-14T19:05:14.368Z,52.80
2022-08-14T19:07:43.260Z,54.10
2022-08-14T19:10:37.384Z,53.90
2022-08-14T19:13:11.916Z,53.80
2022-08-14T19:15:43.713Z,53.30
2022-08-14T19:18:25.973Z,53.50
2022-08-14T19:20:58.256Z,53.70
2022-08-14T19:23:42.315Z,54.50
2022-08-14T19:26:35.688Z,54.80
2022-08-14T19:29:39.478Z,55.20
2022-08-14T19:32:39.676Z,55.30
2022-08-14T19:35:55.805Z,55.70
2022-08-14T19:39:00.316Z,56.10
2022-08-14T19:41:34.059Z,56.50
2022-08-14T19:44:14.165Z,56.70
2022-08-14T19:47:00.375Z,56.80
2022-08-14T19:50:30.534Z,57.00
2022-08-14T19:52:29.812Z,57.10
2022-08-14T19:55:14.470Z,56.80
2022-08-14T19:57:42.410Z,56.80
2022-08-14T20:00:28.245Z,56.90
2022-08-14T20:03:11.899Z,56.90
2022-08-14T20:05:45.628Z,56.90
2022-08-14T20:09:05.935Z,56.70
2022-08-14T20:11:14.297Z,57.00
2022-08-14T20:13:57.824Z,56.60
2022-08-14T20:16:31.984Z,56.50
2022-08-14T20:19:11.629Z,56.60
2022-08-14T20:21:58.039Z,56.80
2022-08-14T20:24:41.291Z,57.30
2022-08-14T20:27:34.231Z,57.80
2022-08-14T20:33:01.335Z,58.20
2022-08-14T20:35:35.734Z,58.10
2022-08-14T20:38:29.649Z,57.90
2022-08-14T20:41:00.777Z,57.70
2022-08-14T20:43:52.707Z,57.90
2022-08-14T20:46:30.113Z,58.10
2022-08-14T20:49:01.102Z,58.80
2022-08-14T20:51:43.316Z,58.50
2022-08-14T20:54:34.673Z,59.80
2022-08-14T20:57:08.526Z,60.30
2022-08-14T20:59:43.390Z,60.60
2022-08-14T21:02:30.504Z,60.90
2022-08-14T21:05:17.127Z,60.70
2022-08-14T21:07:51.420Z,59.60
2022-08-14T21:10:35.722Z,60.00
2022-08-14T21:13:26.005Z,61.00
2022-08-14T21:15:57.306Z,60.90
2022-08-14T21:18:30.436Z,60.80
2022-08-14T21:21:04.870Z,61.00
2022-08-14T21:23:54.204Z,61.20
2022-08-14T21:26:33.327Z,61.90
2022-08-14T21:29:14.453Z,62.20
